createdAt,value
2023-04-16T00:00:57.242Z,62.57
2023-04-16T00:01:58.938Z,62.78
2023-04-16T00:03:00.678Z,62.21
2023-04-16T00:04:02.931Z,61.94
2023-04-16T00:05:05.319Z,62.16
2023-04-16T00:06:07.200Z,61.67
2023-04-16T00:07:08.787Z,61.50
2023-04-16T00:08:10.304Z,62.50
2023-04-16T00:09:11.913Z,62.64
2023-04-16T00:10:14.466Z,62.79
2023-04-16T00:11:15.988Z,63.98
2023-04-16T00:12:17.640Z,63.71
2023-04-16T00:13:19.253Z,62.59
2023-04-16T00:14:20.860Z,63.40
2023-04-16T00:15:22.527Z,62.74
2023-04-16T00:16:24.103Z,62.44
2023-04-16T00:17:25.764Z,62.80
2023-04-16T00:18:27.746Z,63.15
2023-04-16T00:19:29.358Z,62.56
2023-04-16T00:20:31.005Z,62.88
2023-04-16T00:21:32.575Z,62.28
2023-04-16T00:22:34.095Z,61.93
2023-04-16T00:23:35.800Z,62.32
2023-04-16T00:24:37.319Z,61.59
2023-04-16T00:25:38.854Z,62.32
2023-04-16T00:26:41.031Z,62.83
2023-04-16T00:27:42.613Z,61.68
2023-04-16T00:28:44.129Z,61.77
2023-04-16T00:29:45.790Z,62.32
2023-04-16T00:30:47.338Z,62.94
2023-04-16T00:31:48.935Z,63.32
2023-04-16T00:32:50.515Z,63.15
2023-04-16T00:33:52.018Z,63.21
2023-04-16T00:34:53.574Z,63.02
2023-04-16T00:35:55.100Z,62.70
2023-04-16T00:36:56.600Z,63.47
2023-04-16T00:37:58.102Z,62.82
2023-04-16T00:38:59.657Z,64.00
2023-04-16T00:40:01.475Z,63.59
2023-04-16T00:41:03.040Z,64.06
2023-04-16T00:42:04.561Z,64.75
2023-04-16T00:43:06.226Z,64.87
2023-04-16T00:44:07.786Z,64.87
2023-04-16T00:45:10.377Z,64.59
2023-04-16T00:46:12.127Z,64.61
2023-04-16T00:47:13.829Z,65.78
2023-04-16T00:48:15.584Z,64.95
2023-04-16T00:49:17.400Z,65.00
2023-04-16T00:50:19.104Z,65.09
2023-04-16T00:51:21.673Z,65.17
2023-04-16T00:52:23.205Z,64.01
2023-04-16T00:53:25.641Z,65.01
2023-04-16T00:54:27.221Z,64.91
2023-04-16T00:55:29.197Z,64.98
2023-04-16T00:56:30.985Z,65.50
2023-04-16T00:57:32.542Z,66.45
2023-04-16T00:58:35.646Z,67.86
2023-04-16T00:59:37.434Z,68.09
2023-04-16T01:00:38.965Z,67.65
2023-04-16T01:01:40.579Z,67.96
2023-04-16T01:02:42.478Z,68.55
2023-04-16T01:03:46.436Z,67.88
2023-04-16T01:04:48.175Z,67.65
2023-04-16T01:05:50.610Z,67.37
2023-04-16T01:06:52.272Z,67.43
2023-04-16T01:07:53.973Z,67.42
2023-04-16T01:08:55.609Z,67.53
2023-04-16T01:09:57.562Z,66.85
2023-04-16T01:10:59.159Z,66.82
2023-04-16T01:12:02.137Z,66.26
2023-04-16T01:13:03.671Z,66.57
2023-04-16T01:14:05.490Z,66.28
2023-04-16T01:15:07.787Z,66.34
2023-04-16T01:16:11.287Z,66.88
2023-04-16T01:17:12.900Z,65.97
2023-04-16T01:18:18.722Z,66.59
2023-04-16T01:19:20.383Z,65.89
2023-04-16T01:20:22.006Z,66.25
2023-04-16T01:21:23.581Z,66.42
2023-04-16T01:22:25.096Z,67.63
2023-04-16T01:23:26.603Z,66.86
2023-04-16T01:24:28.317Z,67.71
2023-04-16T01:25:29.864Z,68.29
2023-04-16T01:26:31.868Z,68.44
2023-04-16T01:27:33.507Z,69.07
2023-04-16T01:28:35.347Z,69.99
2023-04-16T01:29:37.122Z,69.87
2023-04-16T01:30:38.729Z,70.62
2023-04-16T01:31:40.455Z,70.22
2023-04-16T01:32:42.113Z,71.10
2023-04-16T01:33:43.696Z,71.36
2023-04-16T01:34:45.502Z,71.31
2023-04-16T01:35:47.129Z,71.33
2023-04-16T01:36:48.655Z,70.96
2023-04-16T01:37:51.065Z,70.96
2023-04-16T01:38:52.623Z,70.21
2023-04-16T01:39:54.239Z,69.43
2023-04-16T01:40:59.603Z,69.77
2023-04-16T01:42:02.430Z,70.16
2023-04-16T01:43:04.700Z,70.61
2023-04-16T01:44:06.437Z,70.31
2023-04-16T01:45:08.404Z,70.51
2023-04-16T01:46:18.731Z,70.26
2023-04-16T01:47:20.411Z,70.88
2023-04-16T01:48:22.189Z,70.73
2023-04-16T01:49:23.753Z,69.69
2023-04-16T01:50:25.321Z,70.25
2023-04-16T01:51:28.107Z,69.61
2023-04-16T01:52:30.297Z,69.96
2023-04-16T01:53:31.929Z,69.79
2023-04-16T01:54:33.433Z,69.44
2023-04-16T01:55:35.084Z,69.89
2023-04-16T01:56:36.620Z,69.59
2023-04-16T01:57:38.170Z,69.85
2023-04-16T01:58:41.360Z,70.52
2023-04-16T01:59:42.908Z,69.49
2023-04-16T02:00:44.507Z,69.50
2023-04-16T02:01:46.383Z,69.24
2023-04-16T02:02:49.454Z,69.37
2023-04-16T02:03:51.868Z,69.45
2023-04-16T02:04:53.853Z,68.67
2023-04-16T02:05:55.686Z,69.21
2023-04-16T02:06:57.224Z,68.79
2023-04-16T02:07:58.874Z,69.33
2023-04-16T02:09:00.495Z,68.81
2023-04-16T02:10:02.074Z,69.19
2023-04-16T02:11:03.737Z,68.79
2023-04-16T02:12:05.994Z,69.16
2023-04-16T02:13:07.561Z,69.80
2023-04-16T02:14:09.141Z,68.41
2023-04-16T02:15:11.233Z,68.75
2023-04-16T02:16:12.886Z,68.77
2023-04-16T02:17:15.609Z,68.97
2023-04-16T02:18:17.477Z,68.53
2023-04-16T02:19:19.074Z,68.57
2023-04-16T02:20:20.760Z,68.79
2023-04-16T02:21:22.345Z,68.55
2023-04-16T02:22:23.935Z,68.67
2023-04-16T02:23:25.638Z,68.04
2023-04-16T02:24:27.496Z,68.31
2023-04-16T02:25:29.087Z,68.04
2023-04-16T02:26:30.707Z,67.59
2023-04-16T02:27:32.329Z,67.45
2023-04-16T02:28:33.815Z,68.20
2023-04-16T02:29:35.829Z,68.24
2023-04-16T02:30:38.696Z,69.22
2023-04-16T02:31:40.411Z,69.07
2023-04-16T02:32:42.020Z,70.72
2023-04-16T02:33:43.727Z,69.98
2023-04-16T02:34:45.308Z,71.13
2023-04-16T02:35:48.682Z,72.00
2023-04-16T02:36:50.253Z,72.46
2023-04-16T02:37:51.832Z,71.41
2023-04-16T02:38:53.508Z,72.13
2023-04-16T02:39:55.251Z,71.90
2023-04-16T02:40:56.854Z,72.58
2023-04-16T02:41:59.438Z,71.65
2023-04-16T02:43:01.220Z,72.42
2023-04-16T02:44:02.804Z,72.57
2023-04-16T02:45:04.675Z,73.40
2023-04-16T02:46:06.724Z,72.78
2023-04-16T02:47:08.281Z,73.22
2023-04-16T02:48:10.042Z,72.86
2023-04-16T02:49:11.695Z,72.64
2023-04-16T02:50:13.661Z,73.37
2023-04-16T02:51:15.339Z,73.54
2023-04-16T02:52:16.868Z,74.63
2023-04-16T02:53:18.372Z,74.02
2023-04-16T02:54:19.882Z,74.56
2023-04-16T02:55:21.572Z,75.27
2023-04-16T02:56:23.081Z,75.52
2023-04-16T02:57:24.602Z,75.53
2023-04-16T02:58:27.020Z,76.35
2023-04-16T02:59:28.521Z,76.75
2023-04-16T03:00:30.124Z,76.34
2023-04-16T03:01:31.767Z,76.64
2023-04-16T03:02:33.592Z,75.96
2023-04-16T03:03:35.628Z,76.46
2023-04-16T03:04:37.298Z,76.82
2023-04-16T03:05:40.289Z,76.53
2023-04-16T03:06:42.076Z,76.48
2023-04-16T03:07:43.718Z,77.06
2023-04-16T03:08:45.429Z,76.88
2023-04-16T03:09:47.264Z,77.65
2023-04-16T03:10:48.895Z,78.22
2023-04-16T03:11:50.413Z,77.38
2023-04-16T03:12:51.992Z,78.14
2023-04-16T03:13:53.862Z,78.79
2023-04-16T03:14:55.473Z,78.81
2023-04-16T03:15:57.034Z,79.87
2023-04-16T03:16:58.779Z,78.81
2023-04-16T03:18:01.117Z,79.55
2023-04-16T03:19:02.753Z,79.11
2023-04-16T03:20:05.123Z,78.64
2023-04-16T03:21:06.684Z,79.04
2023-04-16T03:22:08.413Z,78.77
2023-04-16T03:23:10.008Z,78.60
2023-04-16T03:24:11.682Z,78.24
2023-04-16T03:25:13.659Z,78.04
2023-04-16T03:26:15.345Z,77.91
2023-04-16T03:27:16.902Z,78.02
2023-04-16T03:28:18.491Z,78.04
2023-04-16T03:29:20.459Z,76.94
2023-04-16T03:30:21.982Z,76.55
2023-04-16T03:31:26.649Z,77.23
2023-04-16T03:32:28.308Z,77.03
2023-04-16T03:33:29.903Z,75.97
2023-04-16T03:34:31.504Z,75.14
2023-04-16T03:35:33.404Z,75.17
2023-04-16T03:36:34.952Z,75.05
2023-04-16T03:37:36.510Z,74.83
2023-04-16T03:38:38.033Z,73.68
2023-04-16T03:39:39.634Z,73.22
2023-04-16T03:40:41.398Z,73.99
2023-04-16T03:41:43.028Z,74.44
2023-04-16T03:42:44.664Z,73.48
2023-04-16T03:43:46.229Z,73.79
2023-04-16T03:44:47.776Z,73.64
2023-04-16T03:45:49.303Z,73.69
2023-04-16T03:46:51.291Z,73.67
2023-04-16T03:47:53.018Z,73.61
2023-04-16T03:48:54.628Z,74.03
2023-04-16T03:49:56.202Z,73.92
2023-04-16T03:50:57.746Z,73.77
2023-04-16T03:51:59.384Z,74.77
2023-04-16T03:53:00.930Z,73.95
2023-04-16T03:54:02.499Z,74.10
2023-04-16T03:55:04.362Z,74.80
2023-04-16T03:56:06.206Z,74.35
2023-04-16T03:57:07.808Z,74.84
2023-04-16T03:58:09.708Z,74.40
2023-04-16T03:59:11.470Z,74.84
2023-04-16T04:00:13.314Z,74.53
2023-04-16T04:01:15.317Z,73.81
2023-04-16T04:02:17.046Z,73.62
2023-04-16T04:03:19.060Z,73.28
2023-04-16T04:04:21.239Z,73.43
2023-04-16T04:05:22.978Z,73.13
2023-04-16T04:06:24.561Z,73.73
2023-04-16T04:07:26.098Z,73.40
2023-04-16T04:08:27.653Z,74.55
2023-04-16T04:09:29.217Z,74.08
2023-04-16T04:10:37.323Z,74.23
2023-04-16T04:11:38.960Z,75.47
2023-04-16T04:12:40.584Z,74.93
2023-04-16T04:13:42.119Z,75.86
2023-04-16T04:14:43.631Z,75.51
2023-04-16T04:15:45.255Z,75.31
2023-04-16T04:16:46.878Z,76.52
2023-04-16T04:17:48.516Z,76.20
2023-04-16T04:18:50.236Z,76.13
2023-04-16T04:20:00.994Z,76.85
2023-04-16T04:21:07.591Z,77.00
2023-04-16T04:22:09.188Z,76.90
2023-04-16T04:23:10.968Z,77.79
2023-04-16T04:24:12.500Z,78.35
2023-04-16T04:25:14.346Z,79.38
2023-04-16T04:26:16.451Z,79.67
2023-04-16T04:27:18.013Z,79.83
2023-04-16T04:28:19.586Z,79.35
2023-04-16T04:29:21.225Z,79.36
2023-04-16T04:30:22.773Z,79.48
2023-04-16T04:31:24.450Z,79.93
2023-04-16T04:32:26.530Z,80.03
2023-04-16T04:33:28.661Z,81.16
2023-04-16T04:34:30.217Z,80.50
2023-04-16T04:35:31.865Z,80.77
2023-04-16T04:36:33.713Z,80.53
2023-04-16T04:37:35.304Z,80.20
2023-04-16T04:38:36.833Z,80.61
2023-04-16T04:39:38.406Z,80.11
2023-04-16T04:40:39.939Z,79.25
2023-04-16T04:41:41.518Z,79.79
2023-04-16T04:42:43.129Z,80.80
2023-04-16T04:43:44.654Z,79.93
2023-04-16T04:44:46.747Z,79.02
2023-04-16T04:45:49.301Z,79.04
2023-04-16T04:46:51.078Z,79.88
2023-04-16T04:47:53.119Z,79.33
2023-04-16T04:48:54.668Z,79.94
2023-04-16T04:49:56.225Z,79.70
2023-04-16T04:50:57.809Z,79.80
2023-04-16T04:51:59.425Z,79.16
2023-04-16T04:53:00.994Z,78.74
2023-04-16T04:54:02.532Z,78.52
2023-04-16T04:55:04.309Z,78.31
2023-04-16T04:56:12.326Z,79.28
2023-04-16T04:57:14.482Z,78.93
2023-04-16T04:58:16.023Z,78.24
2023-04-16T04:59:17.582Z,78.64
2023-04-16T05:00:19.340Z,79.19
2023-04-16T05:01:21.177Z,79.96
2023-04-16T05:02:22.804Z,81.52
2023-04-16T05:03:24.471Z,79.88
2023-04-16T05:04:26.313Z,80.07
2023-04-16T05:05:27.986Z,79.60
2023-04-16T05:06:29.702Z,79.74
2023-04-16T05:07:31.652Z,79.68
2023-04-16T05:08:33.354Z,78.71
2023-04-16T05:09:34.917Z,78.52
2023-04-16T05:10:36.453Z,79.03
2023-04-16T05:11:39.266Z,78.39
2023-04-16T05:12:40.855Z,78.13
2023-04-16T05:13:42.483Z,77.67
2023-04-16T05:14:44.038Z,76.88
2023-04-16T05:15:46.173Z,76.38
2023-04-16T05:16:47.758Z,76.61
2023-04-16T05:17:49.331Z,77.05
2023-04-16T05:18:50.953Z,76.76
2023-04-16T05:19:52.534Z,76.28
2023-04-16T05:20:54.131Z,75.64
2023-04-16T05:21:55.964Z,75.94
2023-04-16T05:22:57.486Z,73.77
2023-04-16T05:23:59.082Z,74.28
2023-04-16T05:25:00.730Z,74.44
2023-04-16T05:26:02.266Z,74.67
2023-04-16T05:27:03.885Z,74.69
2023-04-16T05:28:05.525Z,74.72
2023-04-16T05:29:07.165Z,73.94
2023-04-16T05:30:09.829Z,72.23
2023-04-16T05:31:11.406Z,71.46
2023-04-16T05:32:12.960Z,71.92
2023-04-16T05:33:14.535Z,71.31
2023-04-16T05:34:16.085Z,71.54
2023-04-16T05:35:17.862Z,70.99
2023-04-16T05:36:19.496Z,71.91
2023-04-16T05:37:21.081Z,72.54
2023-04-16T05:38:22.681Z,72.26
2023-04-16T05:39:24.246Z,72.42
2023-04-16T05:40:26.222Z,72.34
2023-04-16T05:41:27.795Z,71.63
2023-04-16T05:42:29.536Z,71.62
2023-04-16T05:43:31.210Z,71.68
2023-04-16T05:44:34.056Z,72.55
2023-04-16T05:45:40.882Z,73.17
2023-04-16T05:46:42.507Z,72.58
2023-04-16T05:47:44.356Z,71.64
2023-04-16T05:48:46.149Z,71.50
2023-04-16T05:49:47.663Z,71.19
2023-04-16T05:50:49.430Z,70.55
2023-04-16T05:51:51.190Z,71.06
2023-04-16T05:52:52.688Z,70.59
2023-04-16T05:53:54.228Z,70.52
2023-04-16T05:54:55.939Z,70.16
2023-04-16T05:55:57.537Z,71.72
2023-04-16T05:57:01.094Z,71.59
2023-04-16T05:58:05.929Z,71.04
2023-04-16T05:59:07.691Z,71.51
2023-04-16T06:00:09.743Z,71.37
2023-04-16T06:01:11.546Z,70.96
2023-04-16T06:02:13.213Z,71.09
2023-04-16T06:03:14.964Z,70.41
2023-04-16T06:04:16.774Z,69.69
2023-04-16T06:05:18.778Z,68.13
2023-04-16T06:06:20.381Z,67.26
2023-04-16T06:07:22.509Z,65.71
2023-04-16T06:08:24.108Z,64.55
2023-04-16T06:09:25.609Z,64.89
2023-04-16T06:10:27.453Z,64.85
2023-04-16T06:11:30.672Z,65.49
2023-04-16T06:12:32.273Z,65.79
2023-04-16T06:13:33.807Z,66.23
2023-04-16T06:14:35.750Z,66.63
2023-04-16T06:15:37.438Z,65.92
2023-04-16T06:16:39.018Z,65.51
2023-04-16T06:17:40.828Z,65.32
2023-04-16T06:18:42.416Z,62.31
2023-04-16T06:19:43.994Z,62.48
2023-04-16T06:20:45.648Z,63.73
2023-04-16T06:21:47.390Z,64.47
2023-04-16T06:22:48.972Z,66.83
2023-04-16T06:23:50.555Z,66.49
2023-04-16T06:24:53.237Z,68.11
2023-04-16T06:25:55.267Z,68.07
2023-04-16T06:26:57.533Z,69.70
2023-04-16T06:27:59.069Z,69.06
2023-04-16T06:29:01.077Z,69.02
2023-04-16T06:30:02.603Z,68.93
2023-04-16T06:31:04.578Z,68.57
2023-04-16T06:32:06.273Z,69.04
2023-04-16T06:33:07.872Z,67.33
2023-04-16T06:34:09.418Z,67.26
2023-04-16T06:35:10.991Z,67.28
2023-04-16T06:36:12.612Z,66.21
2023-04-16T06:37:14.169Z,66.64
2023-04-16T06:38:15.716Z,66.48
2023-04-16T06:39:17.375Z,67.01
2023-04-16T06:40:18.893Z,66.99
2023-04-16T06:41:22.748Z,66.78
2023-04-16T06:42:24.340Z,65.79
2023-04-16T06:43:26.105Z,64.60
2023-04-16T06:44:27.653Z,63.22
2023-04-16T06:45:29.188Z,64.32
2023-04-16T06:46:30.988Z,64.00
2023-04-16T06:47:32.622Z,64.02
2023-04-16T06:48:34.178Z,63.55
2023-04-16T06:49:35.833Z,63.24
2023-04-16T06:50:37.728Z,63.41
2023-04-16T06:51:39.281Z,64.23
2023-04-16T06:52:40.881Z,63.77
2023-04-16T06:53:42.657Z,64.17
2023-04-16T06:54:44.223Z,63.79
2023-04-16T06:55:45.947Z,62.45
2023-04-16T06:56:47.546Z,62.35
2023-04-16T06:57:49.133Z,62.08
2023-04-16T06:58:51.361Z,61.67
2023-04-16T06:59:52.909Z,61.45
2023-04-16T07:00:54.526Z,61.17
2023-04-16T07:01:56.808Z,61.43
2023-04-16T07:03:00.328Z,60.91
2023-04-16T07:04:02.407Z,60.12
2023-04-16T07:05:04.535Z,59.06
2023-04-16T07:06:06.251Z,57.79
2023-04-16T07:07:08.822Z,57.26
2023-04-16T07:08:10.596Z,57.46
2023-04-16T07:09:12.445Z,59.33
2023-04-16T07:10:14.137Z,60.57
2023-04-16T07:11:15.756Z,59.44
2023-04-16T07:12:17.493Z,60.44
2023-04-16T07:13:19.075Z,61.44
2023-04-16T07:14:20.689Z,62.51
2023-04-16T07:15:22.274Z,63.58
2023-04-16T07:16:23.934Z,63.53
2023-04-16T07:17:25.688Z,65.30
2023-04-16T07:18:27.428Z,65.00
2023-04-16T07:19:32.481Z,65.25
2023-04-16T07:20:34.056Z,65.47
2023-04-16T07:21:35.786Z,65.35
2023-04-16T07:22:37.385Z,65.91
2023-04-16T07:23:38.915Z,64.73
2023-04-16T07:24:40.495Z,65.87
2023-04-16T07:25:42.464Z,65.64
2023-04-16T07:26:44.021Z,65.58
2023-04-16T07:27:45.588Z,65.06
2023-04-16T07:28:47.103Z,65.24
2023-04-16T07:29:50.343Z,65.67
2023-04-16T07:30:52.015Z,65.96
2023-04-16T07:31:53.583Z,64.82
2023-04-16T07:32:56.481Z,63.03
2023-04-16T07:33:58.676Z,63.68
2023-04-16T07:35:00.472Z,66.13
2023-04-16T07:36:02.020Z,66.59
2023-04-16T07:37:03.600Z,65.79
2023-04-16T07:38:05.933Z,66.83
2023-04-16T07:39:07.583Z,66.82
2023-04-16T07:40:09.625Z,66.23
2023-04-16T07:41:11.178Z,65.57
2023-04-16T07:42:12.801Z,64.21
2023-04-16T07:43:17.413Z,63.38
2023-04-16T07:44:18.932Z,63.49
2023-04-16T07:45:20.492Z,63.96
2023-04-16T07:46:22.107Z,63.21
2023-04-16T07:47:23.843Z,64.88
2023-04-16T07:48:25.513Z,65.20
2023-04-16T07:49:27.087Z,63.69
2023-04-16T07:50:28.650Z,64.20
2023-04-16T07:51:30.291Z,63.62
2023-04-16T07:52:31.830Z,63.95
2023-04-16T07:53:33.434Z,62.36
2023-04-16T07:54:34.964Z,60.96
2023-04-16T07:55:36.546Z,57.40
2023-04-16T07:56:38.095Z,57.75
2023-04-16T07:57:41.083Z,58.62
2023-04-16T07:58:42.623Z,58.63
2023-04-16T07:59:44.154Z,58.94
2023-04-16T08:00:45.901Z,57.60
2023-04-16T08:01:47.460Z,56.94
2023-04-16T08:02:49.269Z,57.60
2023-04-16T08:03:51.347Z,57.61
2023-04-16T08:04:53.120Z,57.99
2023-04-16T08:05:54.757Z,58.68
2023-04-16T08:06:56.416Z,58.12
2023-04-16T08:07:58.015Z,57.78
2023-04-16T08:08:59.528Z,56.01
2023-04-16T08:10:01.444Z,55.45
2023-04-16T08:11:03.177Z,56.16
2023-04-16T08:12:05.078Z,57.39
2023-04-16T08:13:06.635Z,55.90
2023-04-16T08:14:08.408Z,53.22
2023-04-16T08:15:10.304Z,53.39
2023-04-16T08:16:12.162Z,51.11
2023-04-16T08:17:17.389Z,52.34
2023-04-16T08:18:19.299Z,51.10
2023-04-16T08:19:20.902Z,52.08
2023-04-16T08:20:22.651Z,50.95
2023-04-16T08:21:24.207Z,52.54
2023-04-16T08:22:26.473Z,52.77
2023-04-16T08:23:28.127Z,52.04
2023-04-16T08:24:29.650Z,51.75
2023-04-16T08:25:31.224Z,51.60
2023-04-16T08:26:32.757Z,51.68
2023-04-16T08:27:34.263Z,52.57
2023-04-16T08:28:35.928Z,50.58
2023-04-16T08:29:37.720Z,52.35
2023-04-16T08:30:39.399Z,51.17
2023-04-16T08:31:41.708Z,52.33
2023-04-16T08:32:43.781Z,53.85
2023-04-16T08:33:45.402Z,55.29
2023-04-16T08:34:46.997Z,53.85
2023-04-16T08:35:48.554Z,52.93
2023-04-16T08:36:50.112Z,54.23
2023-04-16T08:37:51.703Z,52.88
2023-04-16T08:38:53.284Z,50.63
2023-04-16T08:39:54.797Z,49.55
2023-04-16T08:40:58.979Z,50.18
2023-04-16T08:42:04.725Z,48.98
2023-04-16T08:43:13.733Z,48.60
2023-04-16T08:44:21.879Z,47.21
2023-04-16T08:45:25.997Z,47.60
2023-04-16T08:46:30.127Z,46.63
2023-04-16T08:47:34.462Z,48.13
2023-04-16T08:48:37.384Z,48.49
2023-04-16T08:49:43.970Z,47.97
2023-04-16T08:50:46.748Z,49.41
2023-04-16T08:51:52.204Z,49.11
2023-04-16T08:52:58.160Z,49.06
2023-04-16T08:54:08.592Z,49.25
2023-04-16T08:55:14.439Z,49.23
2023-04-16T08:56:19.892Z,49.13
2023-04-16T08:57:23.963Z,48.09
2023-04-16T08:58:31.840Z,48.77
2023-04-16T08:59:34.187Z,48.85
2023-04-16T09:00:38.322Z,49.26
2023-04-16T09:01:41.950Z,49.50
2023-04-16T09:02:43.934Z,50.15
2023-04-16T09:03:48.318Z,49.30
2023-04-16T09:04:51.539Z,50.09
2023-04-16T09:05:55.566Z,50.01
2023-04-16T09:06:58.991Z,50.07
2023-04-16T09:08:00.643Z,50.04
2023-04-16T09:09:04.861Z,50.27
2023-04-16T09:10:08.342Z,49.09
2023-04-16T09:11:10.132Z,49.66
2023-04-16T09:12:12.092Z,49.44
2023-04-16T09:13:16.437Z,50.48
2023-04-16T09:14:18.383Z,47.71
2023-04-16T09:15:21.296Z,47.32
2023-04-16T09:16:24.978Z,47.32
2023-04-16T09:17:27.287Z,46.87
2023-04-16T09:18:28.863Z,47.14
2023-04-16T09:19:30.679Z,46.16
2023-04-16T09:20:32.206Z,47.08
2023-04-16T09:21:33.776Z,46.64
2023-04-16T09:22:36.298Z,45.72
2023-04-16T09:23:41.082Z,46.27
2023-04-16T09:24:42.752Z,44.86
2023-04-16T09:25:44.570Z,45.17
2023-04-16T09:26:46.598Z,44.61
2023-04-16T09:27:51.020Z,45.95
2023-04-16T09:28:52.580Z,44.14
2023-04-16T09:29:54.177Z,44.17
2023-04-16T09:31:08.912Z,44.46
2023-04-16T09:32:11.953Z,44.38
2023-04-16T09:33:24.729Z,43.02
2023-04-16T09:34:27.105Z,43.41
2023-04-16T09:35:45.721Z,43.80
2023-04-16T09:36:47.366Z,45.65
2023-04-16T09:37:58.238Z,43.93
2023-04-16T09:39:00.854Z,43.99
2023-04-16T09:40:04.403Z,43.37
2023-04-16T09:41:08.238Z,44.53
2023-04-16T09:42:10.910Z,43.42
2023-04-16T09:43:14.504Z,43.73
2023-04-16T09:44:16.230Z,43.21
2023-04-16T09:45:17.848Z,42.49
2023-04-16T09:46:19.455Z,43.28
2023-04-16T09:47:22.198Z,43.93
2023-04-16T09:48:33.776Z,43.57
2023-04-16T09:49:41.097Z,41.86
2023-04-16T09:50:52.192Z,41.88
2023-04-16T09:51:56.338Z,42.38
2023-04-16T09:53:02.635Z,44.06
2023-04-16T09:54:07.746Z,43.39
2023-04-16T09:55:09.462Z,41.88
2023-04-16T09:56:12.370Z,41.26
2023-04-16T09:57:14.990Z,41.29
2023-04-16T09:58:20.112Z,41.33
2023-04-16T09:59:23.672Z,42.38
2023-04-16T10:00:25.561Z,41.42
2023-04-16T10:01:27.201Z,42.24
2023-04-16T10:02:29.748Z,42.93
2023-04-16T10:03:33.295Z,43.37
2023-04-16T10:04:48.613Z,44.99
2023-04-16T10:05:53.785Z,45.19
2023-04-16T10:07:05.903Z,43.30
2023-04-16T10:08:14.955Z,43.32
2023-04-16T10:09:16.573Z,43.00
2023-04-16T10:10:18.302Z,44.22
2023-04-16T10:11:21.414Z,43.53
2023-04-16T10:12:23.035Z,42.44
2023-04-16T10:13:27.784Z,41.03
2023-04-16T10:14:29.440Z,42.47
2023-04-16T10:15:31.149Z,42.34
2023-04-16T10:16:33.789Z,42.68
2023-04-16T10:17:36.575Z,40.95
2023-04-16T10:18:40.646Z,42.46
2023-04-16T10:19:42.335Z,43.86
2023-04-16T10:20:44.654Z,45.39
2023-04-16T10:21:46.452Z,43.65
2023-04-16T10:22:48.838Z,41.80
2023-04-16T10:23:52.143Z,41.87
2023-04-16T10:24:54.793Z,41.79
2023-04-16T10:25:58.596Z,43.46
2023-04-16T10:27:00.715Z,42.58
2023-04-16T10:28:03.366Z,39.89
2023-04-16T10:29:06.769Z,38.75
2023-04-16T10:30:09.443Z,39.93
2023-04-16T10:31:12.594Z,39.71
2023-04-16T10:32:14.647Z,39.38
2023-04-16T10:33:16.364Z,40.12
2023-04-16T10:34:18.579Z,41.89
2023-04-16T10:35:21.369Z,41.51
2023-04-16T10:36:25.056Z,41.38
2023-04-16T10:37:31.397Z,39.00
2023-04-16T10:38:33.264Z,41.01
2023-04-16T10:39:39.137Z,41.14
2023-04-16T10:40:45.079Z,40.17
2023-04-16T10:41:46.953Z,40.01
2023-04-16T10:42:59.564Z,39.96
2023-04-16T10:44:11.107Z,41.03
2023-04-16T10:45:12.656Z,38.46
2023-04-16T10:46:21.262Z,38.60
2023-04-16T10:47:24.943Z,38.65
2023-04-16T10:48:30.800Z,38.14
2023-04-16T10:49:37.331Z,38.83
2023-04-16T10:50:39.764Z,39.27
2023-04-16T10:51:42.068Z,40.29
2023-04-16T10:52:43.640Z,40.37
2023-04-16T10:53:45.272Z,40.12
2023-04-16T10:54:48.512Z,41.60
2023-04-16T10:56:15.428Z,41.26
2023-04-16T10:57:19.682Z,40.33
2023-04-16T10:58:31.670Z,39.26
2023-04-16T10:59:35.293Z,40.26
2023-04-16T11:00:51.186Z,39.52
2023-04-16T11:01:56.035Z,38.85
2023-04-16T11:02:57.824Z,39.20
2023-04-16T11:04:02.059Z,38.32
2023-04-16T11:05:04.036Z,37.05
2023-04-16T11:06:17.639Z,37.52
2023-04-16T11:07:20.936Z,37.42
2023-04-16T11:08:23.798Z,37.72
2023-04-16T11:10:05.745Z,38.36
2023-04-16T11:11:07.726Z,37.25
2023-04-16T11:12:12.750Z,36.49
2023-04-16T11:13:15.834Z,36.63
2023-04-16T11:14:17.602Z,38.26
2023-04-16T11:15:23.370Z,37.55
2023-04-16T11:16:26.301Z,37.29
2023-04-16T11:17:36.585Z,35.93
2023-04-16T11:18:41.620Z,35.11
2023-04-16T11:19:53.616Z,35.49
2023-04-16T11:20:55.589Z,33.93
2023-04-16T11:21:57.303Z,34.83
2023-04-16T11:22:59.065Z,34.68
2023-04-16T11:24:00.627Z,35.53
2023-04-16T11:25:02.602Z,34.89
2023-04-16T11:26:04.185Z,35.16
2023-04-16T11:27:06.033Z,32.94
2023-04-16T11:28:07.589Z,33.39
2023-04-16T11:29:15.284Z,33.93
2023-04-16T11:30:17.354Z,33.90
2023-04-16T11:31:18.967Z,34.21
2023-04-16T11:32:22.684Z,35.13
2023-04-16T11:33:25.357Z,34.82
2023-04-16T11:34:27.460Z,34.95
2023-04-16T11:35:29.078Z,35.69
2023-04-16T11:36:43.632Z,35.47
2023-04-16T11:37:46.391Z,35.56
2023-04-16T11:38:47.968Z,35.25
2023-04-16T11:39:51.333Z,36.46
2023-04-16T11:40:54.116Z,36.81
2023-04-16T11:41:56.040Z,36.86
2023-04-16T11:43:03.227Z,36.54
2023-04-16T11:44:21.396Z,33.75
2023-04-16T11:45:23.071Z,34.81
2023-04-16T11:46:38.193Z,35.48
2023-04-16T11:47:55.530Z,35.84
2023-04-16T11:48:57.144Z,34.41
2023-04-16T11:50:15.018Z,34.61
2023-04-16T11:51:17.112Z,34.43
2023-04-16T11:52:33.923Z,35.96
2023-04-16T11:53:37.119Z,35.02
2023-04-16T11:54:38.781Z,36.47
2023-04-16T11:55:45.671Z,36.11
2023-04-16T11:56:48.729Z,34.62
2023-04-16T11:57:51.918Z,35.60
2023-04-16T11:59:10.009Z,35.48
2023-04-16T12:00:15.866Z,33.88
2023-04-16T12:01:21.465Z,34.33
2023-04-16T12:02:50.139Z,35.51
2023-04-16T12:04:02.509Z,34.93
2023-04-16T12:05:30.985Z,34.90
2023-04-16T12:06:32.859Z,34.83
2023-04-16T12:07:45.714Z,35.62
2023-04-16T12:08:47.275Z,35.05
2023-04-16T12:09:49.272Z,34.45
2023-04-16T12:10:55.218Z,36.23
2023-04-16T12:11:56.852Z,36.17
2023-04-16T12:13:15.157Z,35.50
2023-04-16T12:14:16.726Z,36.89
2023-04-16T12:15:18.402Z,36.44
2023-04-16T12:16:21.100Z,35.48
2023-04-16T12:17:23.540Z,34.38
2023-04-16T12:18:27.099Z,34.08
2023-04-16T12:19:28.871Z,34.20
2023-04-16T12:20:40.447Z,34.43
2023-04-16T12:21:47.152Z,34.48
2023-04-16T12:22:49.725Z,34.65
2023-04-16T12:23:54.113Z,34.32
2023-04-16T12:24:58.265Z,34.01
2023-04-16T12:26:10.430Z,33.89
2023-04-16T12:27:13.015Z,34.15
2023-04-16T12:28:16.544Z,34.83
2023-04-16T12:29:22.411Z,35.17
2023-04-16T12:30:26.752Z,35.06
2023-04-16T12:31:38.290Z,34.76
2023-04-16T12:32:41.913Z,35.20
2023-04-16T12:33:43.559Z,36.05
2023-04-16T12:34:51.656Z,36.45
2023-04-16T12:35:53.210Z,35.98
2023-04-16T12:37:09.621Z,37.79
2023-04-16T12:38:12.043Z,36.49
2023-04-16T12:39:15.092Z,36.64
2023-04-16T12:40:16.733Z,36.47
2023-04-16T12:41:18.414Z,36.72
2023-04-16T12:42:21.133Z,37.45
2023-04-16T12:43:22.779Z,36.95
2023-04-16T12:44:24.334Z,36.77
2023-04-16T12:45:26.082Z,37.18
2023-04-16T12:46:27.638Z,37.00
2023-04-16T12:47:29.284Z,38.07
2023-04-16T12:48:32.328Z,38.17
2023-04-16T12:49:33.902Z,38.15
2023-04-16T12:50:35.584Z,37.98
2023-04-16T12:51:38.326Z,38.02
2023-04-16T12:52:39.963Z,38.60
2023-04-16T12:53:41.720Z,39.06
2023-04-16T12:54:43.412Z,38.94
2023-04-16T12:55:45.551Z,39.08
2023-04-16T12:56:47.138Z,38.66
2023-04-16T12:57:49.185Z,40.09
2023-04-16T12:58:51.916Z,39.40
2023-04-16T12:59:53.456Z,40.77
2023-04-16T13:00:54.987Z,39.99
2023-04-16T13:01:56.538Z,39.22
2023-04-16T13:02:58.203Z,38.59
2023-04-16T13:04:00.179Z,37.90
2023-04-16T13:05:02.070Z,38.12
2023-04-16T13:06:04.405Z,38.40
2023-04-16T13:07:06.033Z,37.76
2023-04-16T13:08:07.593Z,37.65
2023-04-16T13:09:09.333Z,37.73
2023-04-16T13:10:12.073Z,38.25
2023-04-16T13:11:13.762Z,39.06
2023-04-16T13:12:15.676Z,39.01
2023-04-16T13:13:17.294Z,39.19
2023-04-16T13:14:20.407Z,39.26
2023-04-16T13:15:21.931Z,39.21
2023-04-16T13:16:23.811Z,39.70
2023-04-16T13:17:25.485Z,40.68
2023-04-16T13:18:29.575Z,41.59
2023-04-16T13:19:31.482Z,42.47
2023-04-16T13:20:33.513Z,42.88
2023-04-16T13:21:35.079Z,43.49
2023-04-16T13:22:36.847Z,44.06
2023-04-16T13:23:38.409Z,44.62
2023-04-16T13:24:40.037Z,44.81
2023-04-16T13:25:41.612Z,45.35
2023-04-16T13:26:43.528Z,45.98
2023-04-16T13:27:45.139Z,46.20
2023-04-16T13:28:46.728Z,46.07
2023-04-16T13:29:48.293Z,46.73